Time;durP1;ratioP1;P1;durP2;ratioP2;P2;SDS_P1;SDS_P2;PMS_P1;PMS_P2;Temp;Humidity;BMP_temperature;BMP_pressure;BME280_temperature;BME280_humidity;BME280_pressure;Samples;Min_cycle;Max_cycle;Signal;HPM_P1;HPM_P2
2023/01/31 00:00:06;;;;;;;7.57;3.13;;;8.60;99.90;;;;;;5004007;28;20287;-70
2023/01/31 00:02:37;;;;;;;5.80;3.10;;;8.60;99.90;;;;;;5019716;28;20195;-70
2023/01/31 00:05:04;;;;;;;10.20;3.50;;;8.70;99.90;;;;;;4999912;28;20813;-70
2023/01/31 00:07:32;;;;;;;7.00;3.17;;;8.70;99.90;;;;;;5010218;28;20275;-70
2023/01/31 00:10:00;;;;;;;13.27;3.50;;;8.80;99.90;;;;;;5015218;28;20280;-70
2023/01/31 00:12:27;;;;;;;8.40;3.63;;;8.80;99.90;;;;;;4996768;28;20219;-70
2023/01/31 00:15:02;;;;;;;8.50;3.73;;;8.80;99.90;;;;;;4998970;28;20231;-70
2023/01/31 00:17:29;;;;;;;13.00;4.23;;;8.80;99.90;;;;;;5002609;28;20862;-70
2023/01/31 00:20:00;;;;;;;8.33;4.03;;;8.80;99.90;;;;;;5017410;28;20187;-70
2023/01/31 00:22:28;;;;;;;5.27;3.50;;;8.80;99.90;;;;;;5024152;28;20658;-70
2023/01/31 00:25:02;;;;;;;8.63;3.77;;;8.80;99.90;;;;;;5021948;28;20227;-70
2023/01/31 00:27:32;;;;;;;12.33;4.00;;;8.80;99.90;;;;;;5001170;28;20193;-70
2023/01/31 00:30:01;;;;;;;9.67;4.27;;;8.80;99.90;;;;;;5001520;28;20241;-70
2023/01/31 00:32:39;;;;;;;14.87;4.47;;;8.70;99.90;;;;;;4999951;28;20193;-70
2023/01/31 00:35:06;;;;;;;7.67;3.90;;;8.70;99.90;;;;;;5022212;28;20195;-70
2023/01/31 00:37:33;;;;;;;10.17;3.70;;;8.70;99.90;;;;;;5002508;28;20185;-70
2023/01/31 00:40:03;;;;;;;16.70;4.27;;;8.70;99.90;;;;;;5010765;28;20258;-70
2023/01/31 00:42:35;;;;;;;10.00;3.90;;;8.70;99.90;;;;;;5017538;28;20844;-71
2023/01/31 00:45:06;;;;;;;10.00;3.93;;;8.70;99.90;;;;;;4988445;28;20210;-70
2023/01/31 00:47:34;;;;;;;10.77;4.10;;;8.60;99.90;;;;;;5006290;28;20184;-70
2023/01/31 00:50:13;;;;;;;10.67;4.43;;;8.60;99.90;;;;;;5002172;28;20564;-70
2023/01/31 00:52:42;;;;;;;11.27;4.43;;;8.50;99.90;;;;;;5027063;28;21035;-70
2023/01/31 00:55:11;;;;;;;12.00;3.97;;;8.50;99.90;;;;;;5023683;28;20704;-70
2023/01/31 00:57:39;;;;;;;11.97;4.20;;;8.50;99.90;;;;;;5022875;28;20257;-70
2023/01/31 01:00:19;;;;;;;17.60;4.00;;;8.50;99.90;;;;;;5022488;28;20593;-70
2023/01/31 01:02:47;;;;;;;15.57;4.27;;;8.60;99.90;;;;;;5014456;28;20271;-71
2023/01/31 01:05:17;;;;;;;14.73;4.37;;;8.70;99.90;;;;;;5020830;28;20251;-71
2023/01/31 01:07:48;;;;;;;9.77;4.40;;;8.80;99.90;;;;;;5023958;28;20184;-71
2023/01/31 01:10:16;;;;;;;10.47;4.27;;;8.80;99.90;;;;;;5017077;28;22269;-72
2023/01/31 01:12:47;;;;;;;19.77;4.50;;;8.80;99.90;;;;;;5008179;28;20274;-71
2023/01/31 01:15:15;;;;;;;12.23;3.53;;;8.80;99.90;;;;;;5007438;28;20192;-71
2023/01/31 01:17:43;;;;;;;11.53;4.23;;;8.80;99.90;;;;;;5025134;28;20357;-72
2023/01/31 01:20:20;;;;;;;19.00;4.50;;;8.90;99.90;;;;;;5023899;28;20200;-72
2023/01/31 01:22:46;;;;;;;14.40;4.13;;;8.80;99.90;;;;;;5001901;28;20199;-72
2023/01/31 01:25:16;;;;;;;17.60;4.50;;;8.80;99.90;;;;;;5027241;28;20652;-71
2023/01/31 01:27:45;;;;;;;13.63;4.10;;;8.90;99.90;;;;;;5024285;28;20192;-71
2023/01/31 01:30:20;;;;;;;20.27;4.57;;;8.90;99.90;;;;;;5004095;28;20200;-71
2023/01/31 01:32:47;;;;;;;15.23;4.07;;;8.90;99.90;;;;;;5016915;28;20184;-72
2023/01/31 01:35:22;;;;;;;13.03;3.90;;;8.90;99.90;;;;;;5014560;28;20200;-72
2023/01/31 01:37:53;;;;;;;19.20;4.37;;;8.90;99.90;;;;;;5021098;28;20218;-72
2023/01/31 01:40:24;;;;;;;15.07;4.13;;;8.90;99.90;;;;;;5020665;28;20609;-72
2023/01/31 01:42:50;;;;;;;11.27;3.63;;;8.90;99.90;;;;;;5021495;28;20214;-71
2023/01/31 01:45:26;;;;;;;14.43;3.40;;;8.90;99.90;;;;;;5027320;28;20292;-72
2023/01/31 01:48:05;;;;;;;12.27;3.83;;;8.90;99.90;;;;;;5026852;28;20262;-71
2023/01/31 01:50:48;;;;;;;9.83;3.17;;;8.90;99.90;;;;;;5007314;28;20208;-71
2023/01/31 01:53:40;;;;;;;12.63;3.33;;;8.90;99.90;;;;;;5001109;28;20255;-71
2023/01/31 01:56:31;;;;;;;8.37;2.97;;;8.90;99.90;;;;;;5016426;28;20197;-71
2023/01/31 01:59:16;;;;;;;11.80;3.23;;;8.90;99.90;;;;;;5020198;28;20211;-72
2023/01/31 02:01:48;;;;;;;15.23;3.27;;;8.90;99.90;;;;;;5005307;28;20689;-71
2023/01/31 02:04:32;;;;;;;10.67;3.00;;;8.90;99.90;;;;;;5018053;28;20565;-71
2023/01/31 02:07:05;;;;;;;13.47;3.07;;;8.90;99.90;;;;;;5016655;28;20197;-72
2023/01/31 02:09:44;;;;;;;8.63;3.30;;;8.90;99.90;;;;;;5021703;28;20388;-72
2023/01/31 02:12:17;;;;;;;8.00;3.37;;;8.70;99.90;;;;;;5002461;28;20211;-71
2023/01/31 02:14:52;;;;;;;15.23;3.47;;;8.70;99.90;;;;;;5004212;28;20189;-72
2023/01/31 02:17:21;;;;;;;6.37;2.90;;;8.80;99.90;;;;;;5018325;28;20702;-71
2023/01/31 02:20:34;;;;;;;5.93;3.07;;;8.80;99.90;;;;;;5015033;28;20181;-71
2023/01/31 02:23:25;;;;;;;10.87;2.97;;;8.80;99.90;;;;;;5021334;28;20203;-71
2023/01/31 02:26:33;;;;;;;;;;;;;;;;;;;;;
2023/01/31 02:29:43;;;;;;;11.70;3.97;;;8.70;99.90;;;;;;5002001;28;20295;-72
2023/01/31 02:32:57;;;;;;;7.33;3.00;;;8.70;99.90;;;;;;5006282;28;20188;-72
2023/01/31 02:36:13;;;;;;;8.77;3.20;;;8.70;99.90;;;;;;5000327;28;20854;-72
2023/01/31 02:39:13;;;;;;;7.63;3.10;;;8.70;99.90;;;;;;5002804;28;20234;-71
2023/01/31 02:42:01;;;;;;;14.37;3.13;;;8.80;99.90;;;;;;5004913;28;20301;-74
2023/01/31 02:45:05;;;;;;;8.63;3.00;;;8.70;99.90;;;;;;5014736;28;20184;-74
2023/01/31 02:48:09;;;;;;;10.10;3.40;;;8.80;99.90;;;;;;5019323;28;20195;-74
2023/01/31 02:51:13;;;;;;;9.83;3.80;;;8.70;99.90;;;;;;5022239;28;20188;-74
2023/01/31 02:54:07;;;;;;;13.40;3.77;;;8.60;99.90;;;;;;4969329;28;20266;-74
2023/01/31 02:56:43;;;;;;;7.10;3.43;;;8.70;99.90;;;;;;5018944;28;20225;-70
2023/01/31 02:59:25;;;;;;;8.23;3.47;;;8.70;99.90;;;;;;4980263;28;20752;-70
2023/01/31 03:02:03;;;;;;;10.87;3.90;;;8.80;99.90;;;;;;5017529;28;20510;-70
2023/01/31 03:04:37;;;;;;;7.90;2.67;;;8.70;99.90;;;;;;5004531;28;20184;-71
2023/01/31 03:07:25;;;;;;;9.87;3.27;;;8.70;99.90;;;;;;4998854;28;20830;-70
2023/01/31 03:10:38;;;;;;;8.87;3.27;;;8.70;99.90;;;;;;4995972;28;20220;-70
2023/01/31 03:13:40;;;;;;;12.60;3.47;;;8.70;99.90;;;;;;5001682;28;20692;-70
2023/01/31 03:19:48;;;;;;;6.87;2.30;;;8.70;99.90;;;;;;5022093;28;20216;-71
2023/01/31 03:22:27;;;;;;;5.57;3.00;;;8.60;99.90;;;;;;5022240;28;20655;-70
2023/01/31 03:24:54;;;;;;;8.50;2.87;;;8.60;99.90;;;;;;5016889;28;20716;-70
2023/01/31 03:27:27;;;;;;;10.03;3.37;;;8.60;99.90;;;;;;5002266;28;20223;-70
2023/01/31 03:30:08;;;;;;;7.00;2.63;;;8.60;99.90;;;;;;5022895;28;20669;-70
2023/01/31 03:32:58;;;;;;;10.97;3.10;;;8.60;99.90;;;;;;5004859;28;20626;-71
2023/01/31 03:35:37;;;;;;;5.67;2.83;;;8.60;99.90;;;;;;5017595;28;20618;-70
2023/01/31 03:38:36;;;;;;;9.40;3.07;;;8.60;99.90;;;;;;5022147;28;20282;-70
2023/01/31 03:41:20;;;;;;;7.80;2.40;;;8.50;99.90;;;;;;4998579;28;20263;-70
2023/01/31 03:44:11;;;;;;;7.47;2.97;;;8.50;99.90;;;;;;5003003;28;20188;-70
2023/01/31 03:46:51;;;;;;;13.10;3.50;;;8.60;99.90;;;;;;5018039;28;20905;-70
2023/01/31 03:49:24;;;;;;;4.93;2.50;;;8.60;99.90;;;;;;5019736;28;20281;-70
2023/01/31 03:52:03;;;;;;;6.20;2.60;;;8.70;99.90;;;;;;5019093;28;20206;-70
2023/01/31 03:54:55;;;;;;;9.30;3.10;;;8.70;99.90;;;;;;5002614;28;20833;-70
2023/01/31 03:57:39;;;;;;;10.40;3.30;;;8.70;99.90;;;;;;5019376;28;20323;-70
2023/01/31 04:00:18;;;;;;;6.37;3.00;;;8.70;99.90;;;;;;5017067;28;20829;-70
2023/01/31 04:02:58;;;;;;;10.53;3.03;;;8.80;99.90;;;;;;5011204;28;20342;-70
2023/01/31 04:05:31;;;;;;;7.40;2.70;;;8.80;99.90;;;;;;4999519;28;20692;-70
2023/01/31 04:07:59;;;;;;;10.70;3.03;;;8.80;99.90;;;;;;5018111;28;20191;-70
2023/01/31 04:10:29;;;;;;;9.07;3.57;;;8.80;99.90;;;;;;5017194;28;20204;-70
2023/01/31 04:12:56;;;;;;;11.20;3.70;;;8.80;99.90;;;;;;4993841;28;20196;-70
2023/01/31 04:15:29;;;;;;;7.03;3.60;;;8.80;99.90;;;;;;4987910;28;20706;-70
2023/01/31 04:17:59;;;;;;;9.37;3.63;;;8.90;99.90;;;;;;4987141;28;20219;-70
2023/01/31 04:20:30;;;;;;;9.13;3.23;;;8.90;99.90;;;;;;5007297;28;20390;-70
2023/01/31 04:23:00;;;;;;;8.23;3.80;;;8.90;99.90;;;;;;5019980;28;20267;-70
2023/01/31 04:25:30;;;;;;;16.67;4.43;;;8.90;99.90;;;;;;5005465;28;20220;-70
2023/01/31 04:27:57;;;;;;;17.43;4.00;;;8.90;99.90;;;;;;5016408;28;20775;-70
2023/01/31 04:30:27;;;;;;;8.97;3.83;;;9.00;99.90;;;;;;5017130;28;20200;-70
2023/01/31 04:32:54;;;;;;;10.73;4.10;;;9.00;99.90;;;;;;5005317;28;20953;-70
2023/01/31 04:35:24;;;;;;;9.37;4.30;;;9.00;99.90;;;;;;5025270;28;20188;-71
2023/01/31 04:37:52;;;;;;;17.87;4.50;;;9.00;99.90;;;;;;5014085;28;20240;-70
2023/01/31 04:40:30;;;;;;;;;;;;;;;;;;;;;
2023/01/31 04:42:58;;;;;;;13.20;4.00;;;9.00;99.90;;;;;;5016649;28;20238;-70
2023/01/31 04:45:28;;;;;;;14.13;3.83;;;9.10;99.90;;;;;;5010065;28;20687;-70
2023/01/31 04:48:04;;;;;;;10.40;3.57;;;9.10;99.90;;;;;;5013598;28;20263;-70
2023/01/31 04:50:37;;;;;;;19.50;3.53;;;9.10;99.90;;;;;;5002511;28;20204;-70
2023/01/31 04:53:21;;;;;;;14.50;3.50;;;9.10;99.90;;;;;;4983075;28;20191;-70
2023/01/31 04:55:58;;;;;;;9.43;3.50;;;9.10;99.90;;;;;;5013509;28;20291;-70
2023/01/31 04:58:33;;;;;;;12.20;3.60;;;9.10;99.90;;;;;;5016979;28;20204;-70
2023/01/31 05:01:07;;;;;;;10.67;3.20;;;9.10;99.90;;;;;;5001989;28;20282;-70
2023/01/31 05:03:39;;;;;;;14.40;3.67;;;9.10;99.90;;;;;;5018276;28;20219;-70
2023/01/31 05:06:08;;;;;;;15.43;3.37;;;9.10;99.90;;;;;;4998024;28;20243;-70
2023/01/31 05:08:37;;;;;;;9.73;3.30;;;9.10;99.90;;;;;;5003301;28;20530;-70
2023/01/31 05:11:07;;;;;;;14.23;3.20;;;9.10;99.90;;;;;;5009564;28;20578;-70
2023/01/31 05:13:42;;;;;;;11.60;3.80;;;9.10;99.90;;;;;;4999856;28;20188;-70
2023/01/31 05:16:12;;;;;;;13.17;3.10;;;9.10;99.90;;;;;;5004602;28;20735;-70
2023/01/31 05:18:41;;;;;;;15.37;3.50;;;9.10;99.90;;;;;;5013223;28;20684;-70
2023/01/31 05:21:17;;;;;;;14.80;3.53;;;9.10;99.90;;;;;;4996672;28;20716;-70
2023/01/31 05:23:46;;;;;;;9.50;3.40;;;9.10;99.90;;;;;;5014781;28;20700;-70
2023/01/31 05:26:13;;;;;;;8.70;3.23;;;9.10;99.90;;;;;;5007925;28;20192;-71
2023/01/31 05:28:48;;;;;;;10.10;3.60;;;9.20;99.90;;;;;;4990851;28;20195;-70
2023/01/31 05:31:24;;;;;;;14.80;3.47;;;9.20;99.90;;;;;;5003541;28;20217;-70
2023/01/31 05:33:52;;;;;;;14.77;3.93;;;9.20;99.90;;;;;;4987068;28;20195;-70
2023/01/31 05:36:19;;;;;;;8.37;3.23;;;9.10;99.90;;;;;;4999957;28;20227;-70
2023/01/31 05:38:49;;;;;;;12.03;3.33;;;9.20;99.90;;;;;;5001074;28;20553;-70
2023/01/31 05:41:16;;;;;;;16.13;3.40;;;9.20;99.90;;;;;;4993296;28;20231;-70
2023/01/31 05:43:50;;;;;;;11.53;3.40;;;9.10;99.90;;;;;;5018701;28;20192;-70
2023/01/31 05:46:22;;;;;;;9.50;3.07;;;9.20;99.90;;;;;;5015127;28;20211;-71
2023/01/31 05:48:52;;;;;;;21.57;3.30;;;9.10;99.90;;;;;;5016301;28;20192;-70
2023/01/31 05:51:27;;;;;;;14.10;3.57;;;9.10;99.90;;;;;;4994141;28;20211;-70
2023/01/31 05:53:54;;;;;;;13.83;3.77;;;9.20;99.90;;;;;;4999837;28;20258;-71
2023/01/31 05:56:27;;;;;;;11.87;3.87;;;9.10;99.90;;;;;;5002831;28;20196;-70
2023/01/31 05:58:55;;;;;;;9.57;3.33;;;9.20;99.90;;;;;;4986364;28;20188;-70
2023/01/31 06:01:31;;;;;;;12.70;3.33;;;9.20;99.90;;;;;;5017269;28;20307;-70
2023/01/31 06:04:09;;;;;;;8.33;3.07;;;9.20;99.90;;;;;;5012512;28;20271;-70
2023/01/31 06:06:43;;;;;;;11.67;3.67;;;9.20;99.90;;;;;;4996525;28;20235;-70
2023/01/31 06:09:18;;;;;;;10.83;3.37;;;9.20;99.90;;;;;;5011914;28;20259;-70
2023/01/31 06:11:47;;;;;;;11.60;3.67;;;9.20;99.90;;;;;;4990081;28;20290;-70
2023/01/31 06:14:19;;;;;;;14.60;4.00;;;9.30;99.90;;;;;;5007735;28;20196;-70
2023/01/31 06:16:46;;;;;;;7.90;3.20;;;9.20;99.90;;;;;;5011018;28;20193;-70
2023/01/31 06:19:24;;;;;;;16.67;4.53;;;9.30;99.90;;;;;;4980769;28;20192;-70
2023/01/31 06:21:56;;;;;;;9.57;3.77;;;9.30;99.90;;;;;;5009798;28;20916;-70
2023/01/31 06:24:30;;;;;;;12.17;3.50;;;9.30;99.90;;;;;;4997901;28;20337;-70
2023/01/31 06:27:01;;;;;;;13.00;3.70;;;9.30;99.90;;;;;;4992238;28;22059;-70
2023/01/31 06:29:29;;;;;;;9.87;3.93;;;9.40;99.90;;;;;;4998764;28;20234;-70
2023/01/31 06:32:00;;;;;;;10.43;4.00;;;9.40;99.90;;;;;;5014868;28;20224;-70
2023/01/31 06:34:28;;;;;;;14.67;3.70;;;9.40;99.90;;;;;;5015990;28;20188;-70
2023/01/31 06:37:01;;;;;;;13.00;3.83;;;9.40;99.90;;;;;;4990981;28;20678;-70
2023/01/31 06:39:37;;;;;;;8.10;3.73;;;9.50;99.90;;;;;;5008878;28;20235;-70
2023/01/31 06:42:06;;;;;;;15.40;3.50;;;9.50;99.90;;;;;;5016971;28;20218;-70
2023/01/31 06:44:33;;;;;;;8.70;3.77;;;9.60;99.90;;;;;;4994024;28;20270;-70
2023/01/31 06:47:02;;;;;;;10.30;3.57;;;9.50;99.90;;;;;;5010740;28;20195;-70
2023/01/31 06:49:31;;;;;;;17.93;5.17;;;9.60;99.90;;;;;;5013688;28;20280;-70
2023/01/31 06:52:01;;;;;;;12.30;4.73;;;9.60;99.90;;;;;;5005901;28;20270;-72
2023/01/31 06:54:30;;;;;;;13.20;4.13;;;9.60;99.90;;;;;;5015364;28;20219;-70
2023/01/31 06:56:57;;;;;;;11.93;4.57;;;9.60;99.90;;;;;;4989429;28;20235;-70
2023/01/31 06:59:27;;;;;;;18.07;4.70;;;9.60;99.90;;;;;;5011902;28;20262;-70
2023/01/31 07:02:00;;;;;;;15.13;4.63;;;9.60;99.90;;;;;;4989615;28;20227;-70
2023/01/31 07:04:31;;;;;;;13.43;4.17;;;9.60;99.90;;;;;;4976408;28;20204;-70
2023/01/31 07:07:04;;;;;;;15.43;5.50;;;9.70;99.90;;;;;;4998863;28;20287;-70
2023/01/31 07:09:38;;;;;;;17.13;5.40;;;9.70;99.90;;;;;;5010680;28;21498;-70
2023/01/31 07:12:22;;;;;;;14.93;4.60;;;9.70;99.90;;;;;;5014855;28;20188;-70
2023/01/31 07:14:50;;;;;;;16.97;4.77;;;9.70;99.90;;;;;;4996184;28;20199;-70
2023/01/31 07:17:36;;;;;;;;;;;;;;;;;;;;;
2023/01/31 07:20:22;;;;;;;10.43;4.13;;;9.80;99.90;;;;;;4992282;28;20556;-70
2023/01/31 07:22:56;;;;;;;11.93;4.60;;;9.80;99.90;;;;;;4983946;28;20204;-70
2023/01/31 07:25:32;;;;;;;15.10;4.70;;;9.90;99.90;;;;;;4994513;28;20188;-70
2023/01/31 07:28:08;;;;;;;9.43;4.80;;;9.90;99.90;;;;;;5008887;28;20230;-70
2023/01/31 07:30:38;;;;;;;15.13;5.43;;;9.90;99.90;;;;;;5006730;28;20597;-70
2023/01/31 07:33:09;;;;;;;14.30;4.93;;;9.90;99.90;;;;;;5020424;28;20610;-70
2023/01/31 07:35:39;;;;;;;12.10;5.30;;;9.90;99.90;;;;;;5016275;28;20787;-70
2023/01/31 07:38:11;;;;;;;12.70;5.40;;;9.90;99.90;;;;;;5018305;28;20839;-70
2023/01/31 07:40:38;;;;;;;14.10;5.23;;;9.90;99.90;;;;;;4991185;28;20648;-70
2023/01/31 07:43:07;;;;;;;15.43;4.93;;;10.00;99.90;;;;;;5011823;28;20243;-70
2023/01/31 07:45:41;;;;;;;19.47;5.60;;;10.00;99.90;;;;;;5023329;28;20271;-70
2023/01/31 07:48:15;;;;;;;11.77;5.07;;;10.00;99.90;;;;;;5008107;28;20304;-70
2023/01/31 07:50:45;;;;;;;19.37;5.63;;;10.00;99.90;;;;;;5009689;28;20677;-70
2023/01/31 07:53:11;;;;;;;12.63;5.23;;;9.90;99.90;;;;;;4994754;28;20684;-70
2023/01/31 07:55:40;;;;;;;12.73;4.53;;;10.00;99.90;;;;;;4990183;28;20200;-70
2023/01/31 07:58:09;;;;;;;10.30;4.13;;;10.00;99.90;;;;;;5003625;28;20193;-70
2023/01/31 08:03:40;;;;;;;9.97;4.20;;;10.00;99.90;;;;;;5000741;28;20175;-70
2023/01/31 08:06:16;;;;;;;11.30;4.40;;;10.00;99.90;;;;;;5009072;28;20187;-70
2023/01/31 08:08:44;;;;;;;17.03;4.50;;;10.10;99.90;;;;;;5013724;28;20211;-70
2023/01/31 08:11:15;;;;;;;9.93;4.00;;;10.20;99.90;;;;;;5011541;28;20196;-70
2023/01/31 08:13:42;;;;;;;7.93;3.93;;;10.20;99.90;;;;;;4997325;28;20196;-70
2023/01/31 08:16:10;;;;;;;11.90;4.27;;;10.30;99.90;;;;;;5007797;28;20192;-70
2023/01/31 08:18:38;;;;;;;16.00;4.33;;;10.40;99.90;;;;;;5008883;28;20215;-70
2023/01/31 08:21:11;;;;;;;10.10;4.00;;;10.50;99.90;;;;;;4991844;28;20216;-70
2023/01/31 08:23:39;;;;;;;12.20;3.70;;;10.50;99.90;;;;;;5003489;28;20184;-70
2023/01/31 08:26:19;;;;;;;10.57;3.93;;;10.60;99.90;;;;;;5006520;28;20192;-69
2023/01/31 08:28:49;;;;;;;10.50;3.87;;;10.70;99.90;;;;;;5004495;28;20196;-70
2023/01/31 08:31:23;;;;;;;11.57;4.23;;;10.80;99.90;;;;;;5012673;28;20272;-70
2023/01/31 08:33:51;;;;;;;10.63;4.20;;;10.80;99.90;;;;;;4992143;28;20208;-70
2023/01/31 08:36:24;;;;;;;8.93;4.33;;;10.90;99.90;;;;;;4995531;28;20282;-70
2023/01/31 08:38:52;;;;;;;12.47;3.97;;;11.00;99.90;;;;;;5014142;28;20205;-70
2023/01/31 08:41:25;;;;;;;9.70;4.13;;;10.90;99.90;;;;;;5017866;28;20581;-70
2023/01/31 08:43:54;;;;;;;10.23;4.40;;;11.00;99.90;;;;;;5013820;28;20168;-70
2023/01/31 08:46:25;;;;;;;11.53;5.30;;;11.00;99.90;;;;;;4999656;28;20191;-70
2023/01/31 08:48:52;;;;;;;16.07;4.70;;;11.00;99.90;;;;;;5010471;28;20200;-70
2023/01/31 08:51:20;;;;;;;13.77;4.23;;;10.90;99.90;;;;;;5010587;28;20177;-70
2023/01/31 08:53:48;;;;;;;8.77;3.70;;;10.90;99.90;;;;;;5014850;28;20279;-72
2023/01/31 08:56:26;;;;;;;8.47;4.20;;;11.00;99.90;;;;;;4997916;28;20255;-71
2023/01/31 08:58:55;;;;;;;8.00;3.80;;;10.90;99.90;;;;;;5015414;28;20219;-72
2023/01/31 09:01:25;;;;;;;14.00;6.00;;;10.90;99.90;;;;;;5010842;28;20334;-70
2023/01/31 09:03:57;;;;;;;12.73;6.10;;;10.90;99.90;;;;;;4994958;28;20295;-70
2023/01/31 09:06:26;;;;;;;14.97;6.20;;;10.70;99.90;;;;;;5014313;28;20195;-70
2023/01/31 09:08:56;;;;;;;18.07;7.10;;;10.60;99.90;;;;;;5001088;28;20191;-70
2023/01/31 09:11:26;;;;;;;18.10;6.60;;;10.50;99.90;;;;;;4981507;28;21106;-70
2023/01/31 09:13:56;;;;;;;14.23;6.53;;;10.50;99.90;;;;;;5017646;28;20184;-70
2023/01/31 09:16:22;;;;;;;20.53;7.23;;;10.60;99.90;;;;;;5001178;28;20219;-70
2023/01/31 09:18:55;;;;;;;15.87;7.03;;;10.60;99.90;;;;;;5014394;28;20202;-70
2023/01/31 09:21:27;;;;;;;24.77;6.37;;;10.60;99.90;;;;;;5017223;28;20207;-70
2023/01/31 09:24:03;;;;;;;18.53;6.30;;;10.60;99.90;;;;;;5005076;28;20224;-70
2023/01/31 09:26:31;;;;;;;23.13;7.10;;;10.60;99.90;;;;;;5019325;28;20176;-70
2023/01/31 09:29:01;;;;;;;21.87;7.17;;;10.60;99.90;;;;;;4991057;28;20545;-70
2023/01/31 09:31:30;;;;;;;22.43;7.07;;;10.70;99.90;;;;;;5021243;28;21102;-70
2023/01/31 09:33:59;;;;;;;14.87;6.40;;;10.70;99.90;;;;;;5013813;28;20549;-70
2023/01/31 09:36:27;;;;;;;23.17;6.90;;;10.80;99.90;;;;;;5003990;28;20845;-70
2023/01/31 09:38:57;;;;;;;21.00;6.50;;;10.80;99.90;;;;;;5012502;28;20283;-70
2023/01/31 09:41:58;;;;;;;21.73;7.30;;;10.70;99.90;;;;;;5000914;28;20767;-70
2023/01/31 09:44:43;;;;;;;16.57;6.77;;;10.60;99.90;;;;;;5012567;28;20198;-70
2023/01/31 09:47:38;;;;;;;22.50;6.30;;;10.60;99.90;;;;;;5014132;28;20215;-69
2023/01/31 09:50:27;;;;;;;15.77;6.20;;;10.50;99.90;;;;;;5015506;28;20258;-70
2023/01/31 09:52:57;;;;;;;17.27;6.50;;;10.50;99.90;;;;;;5015603;28;20196;-70
2023/01/31 09:56:11;;;;;;;22.17;6.20;;;10.50;99.90;;;;;;5015813;28;20235;-70
2023/01/31 09:58:57;;;;;;;13.43;6.53;;;10.70;99.90;;;;;;4950743;28;20203;-70
2023/01/31 10:01:49;;;;;;;12.77;6.50;;;10.70;99.90;;;;;;5021923;28;20772;-70
2023/01/31 10:05:04;;;;;;;13.63;5.97;;;10.70;99.90;;;;;;5010832;28;20187;-70
2023/01/31 10:07:51;;;;;;;15.97;6.27;;;10.70;99.90;;;;;;4978634;28;20199;-70
2023/01/31 10:10:38;;;;;;;16.20;6.13;;;10.70;99.90;;;;;;4978115;28;20181;-70
2023/01/31 10:13:35;;;;;;;16.03;6.00;;;10.80;99.90;;;;;;4986064;28;20917;-70
2023/01/31 10:16:23;;;;;;;14.80;5.40;;;10.90;99.90;;;;;;5018625;28;20725;-70
2023/01/31 10:19:16;;;;;;;17.03;6.47;;;10.90;99.90;;;;;;5004891;28;20192;-70
2023/01/31 10:21:55;;;;;;;18.33;5.80;;;10.90;99.90;;;;;;5021040;28;21024;-70
2023/01/31 10:24:47;;;;;;;15.40;6.33;;;10.90;99.90;;;;;;5019462;28;20612;-70
2023/01/31 10:27:55;;;;;;;22.37;6.17;;;10.90;99.90;;;;;;4997430;28;20258;-70
2023/01/31 10:30:47;;;;;;;10.00;5.30;;;10.90;99.90;;;;;;5000589;28;20195;-69
2023/01/31 10:33:36;;;;;;;22.37;5.90;;;10.90;99.90;;;;;;5010568;28;20204;-70
2023/01/31 10:36:30;;;;;;;16.47;6.17;;;10.90;99.90;;;;;;4988004;28;20561;-69
2023/01/31 10:39:35;;;;;;;19.87;6.47;;;10.90;99.90;;;;;;5027622;28;20203;-70
2023/01/31 10:42:31;;;;;;;16.87;5.90;;;10.90;99.90;;;;;;5000093;28;20215;-70
2023/01/31 10:45:22;;;;;;;15.27;6.03;;;11.00;99.90;;;;;;5014874;28;20648;-69
2023/01/31 10:48:05;;;;;;;16.13;6.87;;;11.00;99.90;;;;;;5011790;28;20189;-70
2023/01/31 10:50:51;;;;;;;13.30;5.60;;;11.00;99.90;;;;;;5016807;28;20603;-70
2023/01/31 10:54:06;;;;;;;18.27;6.13;;;10.90;99.90;;;;;;5009645;28;20823;-70
2023/01/31 10:56:43;;;;;;;22.50;6.43;;;10.90;99.90;;;;;;4999409;28;20287;-69
2023/01/31 10:59:28;;;;;;;15.57;5.33;;;10.90;99.90;;;;;;4996849;28;20672;-70
2023/01/31 11:01:57;;;;;;;13.20;5.93;;;10.70;99.90;;;;;;5003261;28;20216;-70
2023/01/31 11:04:45;;;;;;;10.50;5.20;;;10.70;99.90;;;;;;5000154;28;20188;-70
2023/01/31 11:07:14;;;;;;;12.53;4.83;;;10.70;99.90;;;;;;5001927;28;20287;-70
2023/01/31 11:09:53;;;;;;;12.10;5.50;;;10.60;99.90;;;;;;5016936;28;20211;-70
2023/01/31 11:12:51;;;;;;;12.30;5.50;;;10.60;99.90;;;;;;5005422;28;20581;-70
2023/01/31 11:15:23;;;;;;;18.40;5.77;;;10.60;99.90;;;;;;5019508;28;20192;-70
2023/01/31 11:18:01;;;;;;;13.77;5.27;;;10.60;99.90;;;;;;5010845;28;20675;-70
2023/01/31 11:20:49;;;;;;;16.23;5.83;;;10.60;99.90;;;;;;5012719;28;20214;-69
2023/01/31 11:23:38;;;;;;;12.47;5.30;;;10.60;99.90;;;;;;5015800;28;20893;-70
2023/01/31 11:26:07;;;;;;;18.60;5.50;;;10.60;99.90;;;;;;5010846;28;20199;-70
2023/01/31 11:28:42;;;;;;;13.47;6.13;;;10.50;99.90;;;;;;4991184;28;20191;-70
2023/01/31 11:31:35;;;;;;;18.03;5.67;;;10.50;99.90;;;;;;5002644;28;20486;-70
2023/01/31 11:34:29;;;;;;;23.47;5.57;;;10.70;99.90;;;;;;5004322;28;20184;-71
2023/01/31 11:37:16;;;;;;;18.27;5.90;;;10.90;99.90;;;;;;5017338;28;20211;-70
2023/01/31 11:40:00;;;;;;;13.07;5.30;;;11.10;99.90;;;;;;4996858;28;20207;-70
2023/01/31 11:42:29;;;;;;;12.97;5.57;;;11.20;99.90;;;;;;4983941;28;20216;-70
2023/01/31 11:45:01;;;;;;;16.53;5.47;;;11.20;99.90;;;;;;5018701;28;20285;-70
2023/01/31 11:47:52;;;;;;;12.60;5.13;;;11.30;99.90;;;;;;4988360;28;20191;-70
2023/01/31 11:50:34;;;;;;;15.10;5.67;;;11.20;99.90;;;;;;5012477;28;20348;-70
2023/01/31 11:53:15;;;;;;;16.53;5.67;;;11.10;99.90;;;;;;4997163;28;20276;-70
2023/01/31 11:55:50;;;;;;;10.10;4.90;;;11.00;99.90;;;;;;4990098;28;20637;-70
2023/01/31 11:58:44;;;;;;;20.77;5.57;;;11.00;99.90;;;;;;4995208;28;20529;-70
2023/01/31 12:01:21;;;;;;;16.63;5.53;;;11.00;99.90;;;;;;5009554;28;20270;-70
2023/01/31 12:04:18;;;;;;;12.57;4.87;;;10.90;99.90;;;;;;5015446;28;20207;-70
2023/01/31 12:07:40;;;;;;;21.03;5.23;;;10.90;99.90;;;;;;5016739;28;20188;-70
2023/01/31 12:10:46;;;;;;;16.10;5.37;;;10.80;99.90;;;;;;5013369;28;20307;-69
2023/01/31 12:13:25;;;;;;;14.00;5.63;;;10.70;99.90;;;;;;5012814;28;20705;-70
2023/01/31 12:16:04;;;;;;;8.57;4.57;;;10.80;99.90;;;;;;5013325;28;20189;-70
2023/01/31 12:18:56;;;;;;;13.73;5.30;;;10.90;99.90;;;;;;4995800;28;20197;-70
2023/01/31 12:21:51;;;;;;;15.67;5.47;;;10.90;99.90;;;;;;4995944;28;20300;-70
2023/01/31 12:24:28;;;;;;;15.37;5.03;;;11.00;99.90;;;;;;5015067;28;21042;-70
2023/01/31 12:27:07;;;;;;;17.17;4.40;;;11.20;99.90;;;;;;5012699;28;20202;-70
2023/01/31 12:29:47;;;;;;;11.67;3.97;;;11.20;99.90;;;;;;4999906;28;20189;-70
2023/01/31 12:32:48;;;;;;;8.07;2.87;;;11.10;99.90;;;;;;5012678;28;20220;-70
2023/01/31 12:35:35;;;;;;;7.13;2.97;;;11.10;99.90;;;;;;4997733;28;20283;-70
2023/01/31 12:38:34;;;;;;;6.87;2.87;;;11.20;99.90;;;;;;5015415;28;20200;-70
2023/01/31 12:41:36;;;;;;;5.27;2.53;;;11.20;99.90;;;;;;4998847;28;20208;-70
2023/01/31 12:44:39;;;;;;;10.07;3.00;;;11.00;99.90;;;;;;4998509;28;20190;-70
2023/01/31 12:47:29;;;;;;;7.63;2.50;;;11.00;99.90;;;;;;5016383;28;20179;-70
2023/01/31 12:50:52;;;;;;;12.87;3.30;;;10.80;99.90;;;;;;5002574;28;20192;-70
2023/01/31 12:53:48;;;;;;;8.90;2.80;;;10.80;99.90;;;;;;4927968;29;20196;-70
2023/01/31 12:57:25;;;;;;;8.70;2.70;;;10.70;99.90;;;;;;4905422;29;20186;-70
2023/01/31 13:00:43;;;;;;;11.23;2.60;;;10.70;99.90;;;;;;4864764;29;20572;-70
2023/01/31 13:03:49;;;;;;;8.70;3.20;;;10.70;99.90;;;;;;4918060;29;20199;-70
2023/01/31 13:06:41;;;;;;;8.70;2.60;;;10.70;99.90;;;;;;5001669;28;20257;-70
2023/01/31 13:09:35;;;;;;;8.40;2.80;;;10.70;99.90;;;;;;5002574;28;20637;-70
2023/01/31 13:12:24;;;;;;;11.77;3.03;;;10.70;99.90;;;;;;4999131;28;20191;-70
2023/01/31 13:15:39;;;;;;;14.40;3.10;;;10.70;99.90;;;;;;4997998;28;20674;-70
2023/01/31 13:18:18;;;;;;;10.80;2.63;;;10.80;99.90;;;;;;5014036;28;20215;-70
2023/01/31 13:21:10;;;;;;;6.57;2.40;;;10.80;99.90;;;;;;5020470;28;20844;-70
2023/01/31 13:23:48;;;;;;;9.73;2.60;;;10.90;99.90;;;;;;5011852;28;20203;-70
2023/01/31 13:26:33;;;;;;;13.20;2.50;;;11.10;99.90;;;;;;5014304;28;20180;-70
2023/01/31 13:29:32;;;;;;;8.40;2.50;;;11.20;99.90;;;;;;4993316;28;20192;-70
2023/01/31 13:32:26;;;;;;;9.57;2.40;;;11.30;99.90;;;;;;5014318;28;20868;-70
2023/01/31 13:35:16;;;;;;;9.40;2.77;;;11.20;99.90;;;;;;4998119;28;20197;-70
2023/01/31 13:37:55;;;;;;;6.63;2.47;;;11.10;99.90;;;;;;5015318;28;20177;-70
2023/01/31 13:40:30;;;;;;;9.57;2.50;;;11.10;99.90;;;;;;5002154;28;20278;-70
2023/01/31 13:43:24;;;;;;;;;;;;;;;;;;;;;
2023/01/31 13:46:23;;;;;;;10.33;2.53;;;11.00;99.90;;;;;;5020259;28;20637;-70
2023/01/31 13:49:08;;;;;;;8.47;2.13;;;10.90;99.90;;;;;;5011041;28;20192;-70
2023/01/31 13:52:00;;;;;;;7.43;2.57;;;10.80;99.90;;;;;;5018626;28;20211;-70
2023/01/31 13:54:41;;;;;;;8.97;2.50;;;10.90;99.90;;;;;;4978320;28;20199;-70
2023/01/31 13:57:34;;;;;;;5.80;2.13;;;10.90;99.90;;;;;;5003207;28;20204;-70